sensor_id;sensor_type;location;lat;lon;timestamp;P1;durP1;ratioP1;P2;durP2;ratioP2
17153;SDS011;8692;52.164;7.558;2023-09-19T00:00:37;7.53;;;2.07;;
17153;SDS011;8692;52.164;7.558;2023-09-19T00:03:07;7.17;;;2.10;;
17153;SDS011;8692;52.164;7.558;2023-09-19T00:05:36;6.80;;;2.47;;
17153;SDS011;8692;52.164;7.558;2023-09-19T00:08:05;7.17;;;2.00;;
17153;SDS011;8692;52.164;7.558;2023-09-19T00:10:34;5.47;;;2.27;;
17153;SDS011;8692;52.164;7.558;2023-09-19T00:13:03;7.40;;;2.53;;
17153;SDS011;8692;52.164;7.558;2023-09-19T00:15:36;6.80;;;2.03;;
17153;SDS011;8692;52.164;7.558;2023-09-19T00:18:05;6.83;;;2.30;;
17153;SDS011;8692;52.164;7.558;2023-09-19T00:20:35;5.67;;;2.33;;
17153;SDS011;8692;52.164;7.558;2023-09-19T00:23:05;6.47;;;2.07;;
17153;SDS011;8692;52.164;7.558;2023-09-19T00:25:34;8.40;;;2.33;;
17153;SDS011;8692;52.164;7.558;2023-09-19T00:28:05;9.27;;;2.10;;
17153;SDS011;8692;52.164;7.558;2023-09-19T00:30:34;8.73;;;2.40;;
17153;SDS011;8692;52.164;7.558;2023-09-19T00:33:04;8.90;;;2.67;;
17153;SDS011;8692;52.164;7.558;2023-09-19T00:35:34;9.43;;;2.53;;
17153;SDS011;8692;52.164;7.558;2023-09-19T00:38:03;9.93;;;2.47;;
17153;SDS011;8692;52.164;7.558;2023-09-19T00:40:33;8.97;;;2.30;;
17153;SDS011;8692;52.164;7.558;2023-09-19T00:43:01;15.20;;;2.57;;
17153;SDS011;8692;52.164;7.558;2023-09-19T00:45:31;9.67;;;2.73;;
17153;SDS011;8692;52.164;7.558;2023-09-19T00:48:00;9.07;;;2.40;;
17153;SDS011;8692;52.164;7.558;2023-09-19T00:50:38;6.87;;;2.50;;
17153;SDS011;8692;52.164;7.558;2023-09-19T00:53:10;7.97;;;2.47;;
17153;SDS011;8692;52.164;7.558;2023-09-19T00:55:42;8.07;;;2.20;;
17153;SDS011;8692;52.164;7.558;2023-09-19T00:58:10;14.50;;;2.70;;
17153;SDS011;8692;52.164;7.558;2023-09-19T01:00:40;6.30;;;2.33;;
17153;SDS011;8692;52.164;7.558;2023-09-19T01:03:10;10.43;;;2.60;;
17153;SDS011;8692;52.164;7.558;2023-09-19T01:05:40;8.57;;;2.77;;
17153;SDS011;8692;52.164;7.558;2023-09-19T01:08:09;7.10;;;2.40;;
17153;SDS011;8692;52.164;7.558;2023-09-19T01:10:38;11.17;;;2.90;;
17153;SDS011;8692;52.164;7.558;2023-09-19T01:13:21;8.23;;;2.63;;
17153;SDS011;8692;52.164;7.558;2023-09-19T01:16:02;5.90;;;2.60;;
17153;SDS011;8692;52.164;7.558;2023-09-19T01:18:40;9.20;;;2.50;;
17153;SDS011;8692;52.164;7.558;2023-09-19T01:21:15;9.83;;;2.30;;
17153;SDS011;8692;52.164;7.558;2023-09-19T01:23:59;13.97;;;3.00;;
17153;SDS011;8692;52.164;7.558;2023-09-19T01:26:45;10.00;;;2.57;;
17153;SDS011;8692;52.164;7.558;2023-09-19T01:29:34;10.40;;;2.83;;
17153;SDS011;8692;52.164;7.558;2023-09-19T01:32:08;9.80;;;2.23;;
17153;SDS011;8692;52.164;7.558;2023-09-19T01:34:46;10.10;;;2.87;;
17153;SDS011;8692;52.164;7.558;2023-09-19T01:37:15;8.30;;;2.40;;
17153;SDS011;8692;52.164;7.558;2023-09-19T01:39:46;8.63;;;3.10;;
17153;SDS011;8692;52.164;7.558;2023-09-19T01:42:18;9.63;;;2.50;;
17153;SDS011;8692;52.164;7.558;2023-09-19T01:44:57;13.27;;;3.13;;
17153;SDS011;8692;52.164;7.558;2023-09-19T01:47:33;9.07;;;2.90;;
17153;SDS011;8692;52.164;7.558;2023-09-19T01:50:07;10.37;;;3.10;;
17153;SDS011;8692;52.164;7.558;2023-09-19T01:52:47;11.93;;;3.10;;
17153;SDS011;8692;52.164;7.558;2023-09-19T01:55:20;8.33;;;2.50;;
17153;SDS011;8692;52.164;7.558;2023-09-19T01:57:49;15.77;;;2.67;;
17153;SDS011;8692;52.164;7.558;2023-09-19T02:00:21;10.60;;;3.17;;
17153;SDS011;8692;52.164;7.558;2023-09-19T02:02:53;10.73;;;2.63;;
17153;SDS011;8692;52.164;7.558;2023-09-19T02:05:25;11.17;;;2.90;;
17153;SDS011;8692;52.164;7.558;2023-09-19T02:07:54;10.13;;;2.90;;
17153;SDS011;8692;52.164;7.558;2023-09-19T02:10:25;8.77;;;2.40;;
17153;SDS011;8692;52.164;7.558;2023-09-19T02:12:53;7.77;;;2.30;;
17153;SDS011;8692;52.164;7.558;2023-09-19T02:15:21;13.00;;;2.80;;
17153;SDS011;8692;52.164;7.558;2023-09-19T02:17:49;11.70;;;3.23;;
17153;SDS011;8692;52.164;7.558;2023-09-19T02:20:19;7.77;;;2.03;;
17153;SDS011;8692;52.164;7.558;2023-09-19T02:22:47;7.30;;;2.27;;
17153;SDS011;8692;52.164;7.558;2023-09-19T02:25:16;9.83;;;2.53;;
17153;SDS011;8692;52.164;7.558;2023-09-19T02:27:46;11.27;;;2.47;;
17153;SDS011;8692;52.164;7.558;2023-09-19T02:30:14;11.33;;;2.60;;
17153;SDS011;8692;52.164;7.558;2023-09-19T02:32:46;9.67;;;3.10;;
17153;SDS011;8692;52.164;7.558;2023-09-19T02:35:16;10.37;;;2.73;;
17153;SDS011;8692;52.164;7.558;2023-09-19T02:37:47;6.13;;;2.33;;
17153;SDS011;8692;52.164;7.558;2023-09-19T02:40:15;6.67;;;2.47;;
17153;SDS011;8692;52.164;7.558;2023-09-19T02:42:46;7.07;;;2.87;;
17153;SDS011;8692;52.164;7.558;2023-09-19T02:45:15;9.40;;;2.80;;
17153;SDS011;8692;52.164;7.558;2023-09-19T02:47:45;10.60;;;3.30;;
17153;SDS011;8692;52.164;7.558;2023-09-19T02:50:14;10.67;;;2.97;;
17153;SDS011;8692;52.164;7.558;2023-09-19T02:52:43;7.67;;;2.57;;
17153;SDS011;8692;52.164;7.558;2023-09-19T02:55:15;9.60;;;2.50;;
17153;SDS011;8692;52.164;7.558;2023-09-19T02:57:46;17.77;;;3.80;;
17153;SDS011;8692;52.164;7.558;2023-09-19T03:00:15;9.03;;;2.37;;
17153;SDS011;8692;52.164;7.558;2023-09-19T03:02:47;9.30;;;2.70;;
17153;SDS011;8692;52.164;7.558;2023-09-19T03:05:15;13.87;;;3.10;;
17153;SDS011;8692;52.164;7.558;2023-09-19T03:07:44;12.20;;;3.53;;
17153;SDS011;8692;52.164;7.558;2023-09-19T03:10:15;11.47;;;3.53;;
17153;SDS011;8692;52.164;7.558;2023-09-19T03:12:43;9.53;;;3.00;;
17153;SDS011;8692;52.164;7.558;2023-09-19T03:15:11;10.60;;;2.90;;
17153;SDS011;8692;52.164;7.558;2023-09-19T03:17:43;12.53;;;2.83;;
17153;SDS011;8692;52.164;7.558;2023-09-19T03:20:12;7.43;;;2.53;;
17153;SDS011;8692;52.164;7.558;2023-09-19T03:22:41;11.07;;;2.67;;
17153;SDS011;8692;52.164;7.558;2023-09-19T03:25:09;10.87;;;3.30;;
17153;SDS011;8692;52.164;7.558;2023-09-19T03:27:41;9.43;;;2.93;;
17153;SDS011;8692;52.164;7.558;2023-09-19T03:30:09;6.83;;;3.10;;
17153;SDS011;8692;52.164;7.558;2023-09-19T03:32:44;8.90;;;2.40;;
17153;SDS011;8692;52.164;7.558;2023-09-19T03:35:16;13.67;;;2.67;;
17153;SDS011;8692;52.164;7.558;2023-09-19T03:37:46;10.47;;;2.53;;
17153;SDS011;8692;52.164;7.558;2023-09-19T03:40:15;10.60;;;2.70;;
17153;SDS011;8692;52.164;7.558;2023-09-19T03:42:44;9.43;;;2.57;;
17153;SDS011;8692;52.164;7.558;2023-09-19T03:45:13;12.53;;;3.20;;
17153;SDS011;8692;52.164;7.558;2023-09-19T03:47:47;14.07;;;3.60;;
17153;SDS011;8692;52.164;7.558;2023-09-19T03:50:17;11.77;;;3.03;;
17153;SDS011;8692;52.164;7.558;2023-09-19T03:52:46;11.20;;;2.90;;
17153;SDS011;8692;52.164;7.558;2023-09-19T03:55:14;9.43;;;2.47;;
17153;SDS011;8692;52.164;7.558;2023-09-19T03:57:42;13.57;;;2.93;;
17153;SDS011;8692;52.164;7.558;2023-09-19T04:00:16;12.43;;;3.10;;
17153;SDS011;8692;52.164;7.558;2023-09-19T04:02:47;8.00;;;2.87;;
17153;SDS011;8692;52.164;7.558;2023-09-19T04:05:15;10.07;;;2.70;;
17153;SDS011;8692;52.164;7.558;2023-09-19T04:07:44;11.67;;;3.00;;
17153;SDS011;8692;52.164;7.558;2023-09-19T04:10:13;8.13;;;2.60;;
17153;SDS011;8692;52.164;7.558;2023-09-19T04:12:50;7.47;;;2.43;;
17153;SDS011;8692;52.164;7.558;2023-09-19T04:15:20;11.03;;;2.93;;
17153;SDS011;8692;52.164;7.558;2023-09-19T04:17:52;11.63;;;2.43;;
17153;SDS011;8692;52.164;7.558;2023-09-19T04:20:20;6.43;;;2.73;;
17153;SDS011;8692;52.164;7.558;2023-09-19T04:22:50;11.27;;;3.23;;
17153;SDS011;8692;52.164;7.558;2023-09-19T04:25:18;9.70;;;2.50;;
17153;SDS011;8692;52.164;7.558;2023-09-19T04:27:47;9.27;;;2.70;;
17153;SDS011;8692;52.164;7.558;2023-09-19T04:30:15;7.20;;;2.47;;
17153;SDS011;8692;52.164;7.558;2023-09-19T04:32:44;9.63;;;2.73;;
17153;SDS011;8692;52.164;7.558;2023-09-19T04:35:17;12.03;;;2.97;;
17153;SDS011;8692;52.164;7.558;2023-09-19T04:37:45;8.50;;;2.67;;
17153;SDS011;8692;52.164;7.558;2023-09-19T04:40:14;9.73;;;2.87;;
17153;SDS011;8692;52.164;7.558;2023-09-19T04:42:44;6.63;;;2.10;;
17153;SDS011;8692;52.164;7.558;2023-09-19T04:45:13;11.97;;;2.50;;
17153;SDS011;8692;52.164;7.558;2023-09-19T04:47:41;9.20;;;3.40;;
17153;SDS011;8692;52.164;7.558;2023-09-19T04:50:11;8.63;;;2.53;;
17153;SDS011;8692;52.164;7.558;2023-09-19T04:52:40;6.73;;;1.90;;
17153;SDS011;8692;52.164;7.558;2023-09-19T04:55:11;9.40;;;2.37;;
17153;SDS011;8692;52.164;7.558;2023-09-19T04:57:43;8.73;;;2.67;;
17153;SDS011;8692;52.164;7.558;2023-09-19T05:00:12;5.67;;;2.00;;
17153;SDS011;8692;52.164;7.558;2023-09-19T05:02:43;11.30;;;2.37;;
17153;SDS011;8692;52.164;7.558;2023-09-19T05:05:13;9.77;;;2.30;;
17153;SDS011;8692;52.164;7.558;2023-09-19T05:07:43;10.60;;;2.47;;
17153;SDS011;8692;52.164;7.558;2023-09-19T05:10:12;7.27;;;2.23;;
17153;SDS011;8692;52.164;7.558;2023-09-19T05:12:41;9.73;;;2.80;;
17153;SDS011;8692;52.164;7.558;2023-09-19T05:15:11;6.70;;;2.30;;
17153;SDS011;8692;52.164;7.558;2023-09-19T05:17:40;10.57;;;3.20;;
17153;SDS011;8692;52.164;7.558;2023-09-19T05:20:09;12.37;;;3.00;;
17153;SDS011;8692;52.164;7.558;2023-09-19T05:22:41;6.47;;;2.47;;
17153;SDS011;8692;52.164;7.558;2023-09-19T05:25:10;7.37;;;2.27;;
17153;SDS011;8692;52.164;7.558;2023-09-19T05:27:42;8.20;;;2.93;;
17153;SDS011;8692;52.164;7.558;2023-09-19T05:30:10;10.90;;;3.25;;
17153;SDS011;8692;52.164;7.558;2023-09-19T05:32:41;9.77;;;2.60;;
17153;SDS011;8692;52.164;7.558;2023-09-19T05:35:10;9.57;;;2.93;;
17153;SDS011;8692;52.164;7.558;2023-09-19T05:37:39;7.93;;;2.37;;
17153;SDS011;8692;52.164;7.558;2023-09-19T05:40:09;6.53;;;2.50;;
17153;SDS011;8692;52.164;7.558;2023-09-19T05:42:38;6.73;;;1.93;;
17153;SDS011;8692;52.164;7.558;2023-09-19T05:45:08;7.03;;;2.27;;
17153;SDS011;8692;52.164;7.558;2023-09-19T05:47:38;10.83;;;2.40;;
17153;SDS011;8692;52.164;7.558;2023-09-19T05:50:12;8.50;;;2.20;;
17153;SDS011;8692;52.164;7.558;2023-09-19T05:52:41;6.37;;;2.10;;
17153;SDS011;8692;52.164;7.558;2023-09-19T05:55:11;8.90;;;2.10;;
17153;SDS011;8692;52.164;7.558;2023-09-19T05:57:40;6.27;;;2.17;;
17153;SDS011;8692;52.164;7.558;2023-09-19T06:00:09;6.47;;;2.50;;
17153;SDS011;8692;52.164;7.558;2023-09-19T06:02:38;9.40;;;2.60;;
17153;SDS011;8692;52.164;7.558;2023-09-19T06:05:06;5.87;;;2.37;;
17153;SDS011;8692;52.164;7.558;2023-09-19T06:07:36;9.77;;;2.33;;
17153;SDS011;8692;52.164;7.558;2023-09-19T06:10:04;6.77;;;2.57;;
17153;SDS011;8692;52.164;7.558;2023-09-19T06:12:35;7.77;;;2.50;;
17153;SDS011;8692;52.164;7.558;2023-09-19T06:15:06;7.93;;;2.20;;
17153;SDS011;8692;52.164;7.558;2023-09-19T06:17:35;9.20;;;2.00;;
17153;SDS011;8692;52.164;7.558;2023-09-19T06:20:04;4.73;;;1.77;;
17153;SDS011;8692;52.164;7.558;2023-09-19T06:22:39;8.60;;;2.33;;
17153;SDS011;8692;52.164;7.558;2023-09-19T06:25:08;6.17;;;1.80;;
17153;SDS011;8692;52.164;7.558;2023-09-19T06:27:39;5.57;;;2.00;;
17153;SDS011;8692;52.164;7.558;2023-09-19T06:30:09;7.03;;;2.30;;
17153;SDS011;8692;52.164;7.558;2023-09-19T06:32:37;5.77;;;2.37;;
17153;SDS011;8692;52.164;7.558;2023-09-19T06:35:06;7.30;;;2.37;;
17153;SDS011;8692;52.164;7.558;2023-09-19T06:37:35;8.53;;;2.33;;
17153;SDS011;8692;52.164;7.558;2023-09-19T06:40:06;7.83;;;2.47;;
17153;SDS011;8692;52.164;7.558;2023-09-19T06:42:41;9.40;;;2.30;;
17153;SDS011;8692;52.164;7.558;2023-09-19T06:45:10;6.30;;;1.97;;
17153;SDS011;8692;52.164;7.558;2023-09-19T06:47:39;7.53;;;2.47;;
17153;SDS011;8692;52.164;7.558;2023-09-19T06:50:09;4.83;;;1.80;;
17153;SDS011;8692;52.164;7.558;2023-09-19T06:52:40;8.17;;;1.93;;
17153;SDS011;8692;52.164;7.558;2023-09-19T06:55:09;9.17;;;2.47;;
17153;SDS011;8692;52.164;7.558;2023-09-19T06:57:39;8.83;;;2.10;;
17153;SDS011;8692;52.164;7.558;2023-09-19T07:00:10;6.07;;;1.90;;
17153;SDS011;8692;52.164;7.558;2023-09-19T07:02:44;10.47;;;2.10;;
17153;SDS011;8692;52.164;7.558;2023-09-19T07:05:12;7.40;;;1.80;;
17153;SDS011;8692;52.164;7.558;2023-09-19T07:07:40;9.10;;;2.20;;
17153;SDS011;8692;52.164;7.558;2023-09-19T07:10:11;5.03;;;1.90;;
17153;SDS011;8692;52.164;7.558;2023-09-19T07:12:39;8.37;;;2.77;;
17153;SDS011;8692;52.164;7.558;2023-09-19T07:15:10;4.97;;;1.90;;
17153;SDS011;8692;52.164;7.558;2023-09-19T07:17:38;9.20;;;2.10;;
17153;SDS011;8692;52.164;7.558;2023-09-19T07:20:06;10.60;;;2.43;;
17153;SDS011;8692;52.164;7.558;2023-09-19T07:22:35;7.70;;;2.07;;
17153;SDS011;8692;52.164;7.558;2023-09-19T07:25:06;7.47;;;2.90;;
17153;SDS011;8692;52.164;7.558;2023-09-19T07:27:34;8.67;;;2.60;;
17153;SDS011;8692;52.164;7.558;2023-09-19T07:30:02;10.53;;;2.47;;
17153;SDS011;8692;52.164;7.558;2023-09-19T07:32:33;5.00;;;1.90;;
17153;SDS011;8692;52.164;7.558;2023-09-19T07:35:03;7.97;;;2.40;;
17153;SDS011;8692;52.164;7.558;2023-09-19T07:37:35;10.33;;;2.97;;
17153;SDS011;8692;52.164;7.558;2023-09-19T07:40:03;4.63;;;2.00;;
17153;SDS011;8692;52.164;7.558;2023-09-19T07:42:33;6.17;;;2.13;;
17153;SDS011;8692;52.164;7.558;2023-09-19T07:45:03;7.57;;;2.67;;
17153;SDS011;8692;52.164;7.558;2023-09-19T07:47:33;10.13;;;2.07;;
17153;SDS011;8692;52.164;7.558;2023-09-19T07:50:03;4.70;;;2.10;;
17153;SDS011;8692;52.164;7.558;2023-09-19T07:52:33;7.27;;;2.13;;
17153;SDS011;8692;52.164;7.558;2023-09-19T07:55:02;7.60;;;2.53;;
17153;SDS011;8692;52.164;7.558;2023-09-19T07:57:35;9.23;;;2.83;;
17153;SDS011;8692;52.164;7.558;2023-09-19T08:00:04;9.00;;;2.93;;
17153;SDS011;8692;52.164;7.558;2023-09-19T08:02:41;13.10;;;3.07;;
17153;SDS011;8692;52.164;7.558;2023-09-19T08:05:11;7.63;;;2.60;;
17153;SDS011;8692;52.164;7.558;2023-09-19T08:07:42;42.27;;;3.07;;
17153;SDS011;8692;52.164;7.558;2023-09-19T08:10:15;4.67;;;2.20;;
17153;SDS011;8692;52.164;7.558;2023-09-19T08:12:46;7.00;;;1.97;;
17153;SDS011;8692;52.164;7.558;2023-09-19T08:15:15;13.10;;;2.53;;
17153;SDS011;8692;52.164;7.558;2023-09-19T08:17:47;10.00;;;2.70;;
17153;SDS011;8692;52.164;7.558;2023-09-19T08:20:16;10.80;;;2.60;;
17153;SDS011;8692;52.164;7.558;2023-09-19T08:22:47;14.13;;;3.37;;
17153;SDS011;8692;52.164;7.558;2023-09-19T08:25:15;9.23;;;3.03;;
17153;SDS011;8692;52.164;7.558;2023-09-19T08:27:45;9.33;;;2.63;;
17153;SDS011;8692;52.164;7.558;2023-09-19T08:30:14;7.83;;;2.90;;
17153;SDS011;8692;52.164;7.558;2023-09-19T08:32:43;10.00;;;3.10;;
17153;SDS011;8692;52.164;7.558;2023-09-19T08:35:13;8.43;;;2.30;;
17153;SDS011;8692;52.164;7.558;2023-09-19T08:37:42;9.10;;;2.73;;
17153;SDS011;8692;52.164;7.558;2023-09-19T08:40:12;10.67;;;2.83;;
17153;SDS011;8692;52.164;7.558;2023-09-19T08:42:49;9.70;;;2.87;;
17153;SDS011;8692;52.164;7.558;2023-09-19T08:45:17;9.00;;;2.73;;
17153;SDS011;8692;52.164;7.558;2023-09-19T08:50:39;11.13;;;2.40;;
17153;SDS011;8692;52.164;7.558;2023-09-19T08:53:15;8.33;;;2.70;;
17153;SDS011;8692;52.164;7.558;2023-09-19T08:55:49;15.67;;;3.03;;
17153;SDS011;8692;52.164;7.558;2023-09-19T08:58:20;11.40;;;2.63;;
17153;SDS011;8692;52.164;7.558;2023-09-19T09:00:54;7.03;;;2.53;;
17153;SDS011;8692;52.164;7.558;2023-09-19T09:03:23;9.47;;;2.70;;
17153;SDS011;8692;52.164;7.558;2023-09-19T09:05:54;8.60;;;2.70;;
17153;SDS011;8692;52.164;7.558;2023-09-19T09:08:22;9.23;;;2.63;;
17153;SDS011;8692;52.164;7.558;2023-09-19T09:10:51;11.23;;;2.83;;
17153;SDS011;8692;52.164;7.558;2023-09-19T09:13:20;10.83;;;2.77;;
17153;SDS011;8692;52.164;7.558;2023-09-19T09:15:51;7.50;;;2.20;;
17153;SDS011;8692;52.164;7.558;2023-09-19T09:18:20;8.07;;;2.13;;
17153;SDS011;8692;52.164;7.558;2023-09-19T09:20:49;8.87;;;2.40;;
17153;SDS011;8692;52.164;7.558;2023-09-19T09:23:18;5.23;;;2.30;;
17153;SDS011;8692;52.164;7.558;2023-09-19T09:25:47;11.37;;;2.77;;
17153;SDS011;8692;52.164;7.558;2023-09-19T09:28:21;13.70;;;2.57;;
17153;SDS011;8692;52.164;7.558;2023-09-19T09:30:50;11.10;;;2.80;;
17153;SDS011;8692;52.164;7.558;2023-09-19T09:33:19;10.87;;;3.07;;
17153;SDS011;8692;52.164;7.558;2023-09-19T09:35:48;8.20;;;2.40;;
17153;SDS011;8692;52.164;7.558;2023-09-19T09:38:20;7.73;;;2.40;;
17153;SDS011;8692;52.164;7.558;2023-09-19T09:40:52;9.97;;;2.67;;
17153;SDS011;8692;52.164;7.558;2023-09-19T09:43:31;7.03;;;2.20;;
17153;SDS011;8692;52.164;7.558;2023-09-19T09:46:08;7.53;;;1.90;;
17153;SDS011;8692;52.164;7.558;2023-09-19T09:49:00;9.53;;;2.47;;
17153;SDS011;8692;52.164;7.558;2023-09-19T09:51:43;7.53;;;2.67;;
17153;SDS011;8692;52.164;7.558;2023-09-19T09:54:16;7.30;;;2.03;;
17153;SDS011;8692;52.164;7.558;2023-09-19T09:56:56;8.50;;;2.90;;
17153;SDS011;8692;52.164;7.558;2023-09-19T09:59:45;12.23;;;3.00;;
17153;SDS011;8692;52.164;7.558;2023-09-19T10:02:16;6.67;;;1.93;;
17153;SDS011;8692;52.164;7.558;2023-09-19T10:04:51;12.83;;;2.70;;
17153;SDS011;8692;52.164;7.558;2023-09-19T10:07:26;11.07;;;2.90;;
17153;SDS011;8692;52.164;7.558;2023-09-19T10:10:08;8.10;;;2.77;;
17153;SDS011;8692;52.164;7.558;2023-09-19T10:12:43;8.80;;;2.57;;
17153;SDS011;8692;52.164;7.558;2023-09-19T10:15:15;7.83;;;2.63;;
17153;SDS011;8692;52.164;7.558;2023-09-19T10:17:47;12.00;;;2.77;;
17153;SDS011;8692;52.164;7.558;2023-09-19T10:20:16;9.63;;;2.60;;
17153;SDS011;8692;52.164;7.558;2023-09-19T10:22:53;8.50;;;2.47;;
17153;SDS011;8692;52.164;7.558;2023-09-19T10:25:26;10.20;;;3.00;;
17153;SDS011;8692;52.164;7.558;2023-09-19T10:27:57;8.60;;;2.53;;
17153;SDS011;8692;52.164;7.558;2023-09-19T10:30:29;11.57;;;2.47;;
17153;SDS011;8692;52.164;7.558;2023-09-19T10:33:00;10.23;;;2.97;;
17153;SDS011;8692;52.164;7.558;2023-09-19T10:35:30;8.13;;;2.30;;
17153;SDS011;8692;52.164;7.558;2023-09-19T10:38:00;8.27;;;2.60;;
17153;SDS011;8692;52.164;7.558;2023-09-19T10:40:32;10.00;;;2.90;;
17153;SDS011;8692;52.164;7.558;2023-09-19T10:43:03;10.47;;;2.67;;
17153;SDS011;8692;52.164;7.558;2023-09-19T10:45:32;7.17;;;2.77;;
17153;SDS011;8692;52.164;7.558;2023-09-19T10:48:01;8.80;;;3.13;;
17153;SDS011;8692;52.164;7.558;2023-09-19T10:50:32;14.50;;;3.47;;
17153;SDS011;8692;52.164;7.558;2023-09-19T10:53:04;6.83;;;2.47;;
17153;SDS011;8692;52.164;7.558;2023-09-19T10:55:36;8.30;;;2.47;;
17153;SDS011;8692;52.164;7.558;2023-09-19T10:58:05;9.17;;;3.50;;
17153;SDS011;8692;52.164;7.558;2023-09-19T11:00:50;8.63;;;2.37;;
17153;SDS011;8692;52.164;7.558;2023-09-19T11:03:20;7.23;;;2.27;;
17153;SDS011;8692;52.164;7.558;2023-09-19T11:06:00;9.97;;;3.07;;
17153;SDS011;8692;52.164;7.558;2023-09-19T11:11:50;7.70;;;2.60;;
17153;SDS011;8692;52.164;7.558;2023-09-19T11:14:30;7.13;;;2.60;;
17153;SDS011;8692;52.164;7.558;2023-09-19T11:20:17;6.30;;;2.67;;
17153;SDS011;8692;52.164;7.558;2023-09-19T11:25:57;5.27;;;2.37;;
17153;SDS011;8692;52.164;7.558;2023-09-19T11:28:29;9.93;;;2.77;;
17153;SDS011;8692;52.164;7.558;2023-09-19T11:34:41;10.97;;;2.77;;
17153;SDS011;8692;52.164;7.558;2023-09-19T11:40:28;9.17;;;2.90;;
17153;SDS011;8692;52.164;7.558;2023-09-19T11:42:57;10.27;;;2.83;;
17153;SDS011;8692;52.164;7.558;2023-09-19T11:48:33;7.70;;;2.20;;
17153;SDS011;8692;52.164;7.558;2023-09-19T11:51:11;9.53;;;2.83;;
17153;SDS011;8692;52.164;7.558;2023-09-19T11:53:46;9.80;;;2.97;;
17153;SDS011;8692;52.164;7.558;2023-09-19T11:56:16;7.80;;;2.93;;
17153;SDS011;8692;52.164;7.558;2023-09-19T11:58:46;8.77;;;2.90;;
17153;SDS011;8692;52.164;7.558;2023-09-19T12:01:24;8.83;;;2.57;;
17153;SDS011;8692;52.164;7.558;2023-09-19T12:03:57;10.07;;;3.07;;
17153;SDS011;8692;52.164;7.558;2023-09-19T12:06:26;8.53;;;2.17;;
17153;SDS011;8692;52.164;7.558;2023-09-19T12:08:56;6.47;;;2.53;;
17153;SDS011;8692;52.164;7.558;2023-09-19T12:11:27;8.23;;;2.30;;
17153;SDS011;8692;52.164;7.558;2023-09-19T12:13:59;6.27;;;2.33;;
17153;SDS011;8692;52.164;7.558;2023-09-19T12:16:27;8.47;;;2.20;;
17153;SDS011;8692;52.164;7.558;2023-09-19T12:18:58;5.83;;;2.37;;
17153;SDS011;8692;52.164;7.558;2023-09-19T12:21:53;8.47;;;2.60;;
17153;SDS011;8692;52.164;7.558;2023-09-19T12:24:23;8.93;;;2.40;;
17153;SDS011;8692;52.164;7.558;2023-09-19T12:26:59;8.00;;;2.20;;
17153;SDS011;8692;52.164;7.558;2023-09-19T12:29:31;5.23;;;2.10;;
17153;SDS011;8692;52.164;7.558;2023-09-19T12:32:00;6.87;;;2.43;;
17153;SDS011;8692;52.164;7.558;2023-09-19T12:34:33;5.57;;;2.00;;
17153;SDS011;8692;52.164;7.558;2023-09-19T12:37:06;5.23;;;1.87;;
17153;SDS011;8692;52.164;7.558;2023-09-19T12:39:48;9.67;;;2.07;;
17153;SDS011;8692;52.164;7.558;2023-09-19T12:42:17;6.53;;;2.13;;
17153;SDS011;8692;52.164;7.558;2023-09-19T12:44:48;7.80;;;2.20;;
17153;SDS011;8692;52.164;7.558;2023-09-19T12:47:22;8.87;;;2.20;;
17153;SDS011;8692;52.164;7.558;2023-09-19T12:50:11;8.17;;;2.57;;
17153;SDS011;8692;52.164;7.558;2023-09-19T12:52:45;7.70;;;2.23;;
17153;SDS011;8692;52.164;7.558;2023-09-19T12:55:19;7.30;;;2.50;;
17153;SDS011;8692;52.164;7.558;2023-09-19T12:57:55;5.93;;;1.90;;
17153;SDS011;8692;52.164;7.558;2023-09-19T13:00:31;5.60;;;1.97;;
17153;SDS011;8692;52.164;7.558;2023-09-19T13:03:12;8.57;;;2.33;;
17153;SDS011;8692;52.164;7.558;2023-09-19T13:05:54;10.80;;;2.07;;
17153;SDS011;8692;52.164;7.558;2023-09-19T13:08:25;11.37;;;2.00;;
17153;SDS011;8692;52.164;7.558;2023-09-19T13:11:08;7.30;;;2.03;;
17153;SDS011;8692;52.164;7.558;2023-09-19T13:13:40;5.57;;;1.83;;
17153;SDS011;8692;52.164;7.558;2023-09-19T13:16:16;9.97;;;1.80;;
17153;SDS011;8692;52.164;7.558;2023-09-19T13:18:49;7.60;;;1.60;;
17153;SDS011;8692;52.164;7.558;2023-09-19T13:21:28;10.40;;;2.30;;
17153;SDS011;8692;52.164;7.558;2023-09-19T13:24:19;5.37;;;2.00;;
17153;SDS011;8692;52.164;7.558;2023-09-19T13:26:49;6.27;;;1.90;;
17153;SDS011;8692;52.164;7.558;2023-09-19T13:29:17;9.40;;;2.00;;
17153;SDS011;8692;52.164;7.558;2023-09-19T13:31:46;6.70;;;2.07;;
17153;SDS011;8692;52.164;7.558;2023-09-19T13:34:14;5.60;;;2.07;;
17153;SDS011;8692;52.164;7.558;2023-09-19T13:36:45;7.27;;;2.27;;
17153;SDS011;8692;52.164;7.558;2023-09-19T13:39:14;9.57;;;2.20;;
17153;SDS011;8692;52.164;7.558;2023-09-19T13:41:43;6.30;;;2.20;;
17153;SDS011;8692;52.164;7.558;2023-09-19T13:44:13;6.00;;;2.30;;
17153;SDS011;8692;52.164;7.558;2023-09-19T13:46:41;6.93;;;1.97;;
17153;SDS011;8692;52.164;7.558;2023-09-19T13:49:12;5.67;;;2.10;;
17153;SDS011;8692;52.164;7.558;2023-09-19T13:51:41;6.03;;;2.10;;
17153;SDS011;8692;52.164;7.558;2023-09-19T13:54:12;5.20;;;1.90;;
17153;SDS011;8692;52.164;7.558;2023-09-19T13:56:40;10.20;;;2.60;;
17153;SDS011;8692;52.164;7.558;2023-09-19T13:59:08;10.47;;;2.00;;
17153;SDS011;8692;52.164;7.558;2023-09-19T14:01:36;7.63;;;1.87;;
17153;SDS011;8692;52.164;7.558;2023-09-19T14:04:06;8.00;;;1.77;;
17153;SDS011;8692;52.164;7.558;2023-09-19T14:06:34;4.90;;;1.87;;
17153;SDS011;8692;52.164;7.558;2023-09-19T14:09:03;5.73;;;1.87;;
17153;SDS011;8692;52.164;7.558;2023-09-19T14:11:33;4.53;;;1.93;;
17153;SDS011;8692;52.164;7.558;2023-09-19T14:14:01;4.73;;;1.73;;
17153;SDS011;8692;52.164;7.558;2023-09-19T14:16:31;3.97;;;1.60;;
17153;SDS011;8692;52.164;7.558;2023-09-19T14:18:59;8.13;;;2.10;;
17153;SDS011;8692;52.164;7.558;2023-09-19T14:21:27;4.80;;;2.13;;
17153;SDS011;8692;52.164;7.558;2023-09-19T14:23:55;5.53;;;1.93;;
17153;SDS011;8692;52.164;7.558;2023-09-19T14:26:23;7.07;;;2.37;;
17153;SDS011;8692;52.164;7.558;2023-09-19T14:28:53;4.23;;;1.77;;
17153;SDS011;8692;52.164;7.558;2023-09-19T14:31:21;8.37;;;1.83;;
17153;SDS011;8692;52.164;7.558;2023-09-19T14:33:53;4.87;;;1.80;;
17153;SDS011;8692;52.164;7.558;2023-09-19T14:36:21;6.93;;;1.70;;
17153;SDS011;8692;52.164;7.558;2023-09-19T14:38:52;6.47;;;1.97;;
17153;SDS011;8692;52.164;7.558;2023-09-19T14:41:22;6.90;;;1.63;;
17153;SDS011;8692;52.164;7.558;2023-09-19T14:43:53;9.70;;;2.20;;
17153;SDS011;8692;52.164;7.558;2023-09-19T14:46:21;6.30;;;1.50;;
17153;SDS011;8692;52.164;7.558;2023-09-19T14:48:51;7.37;;;1.73;;
17153;SDS011;8692;52.164;7.558;2023-09-19T14:51:19;9.17;;;1.53;;
17153;SDS011;8692;52.164;7.558;2023-09-19T14:53:48;6.67;;;1.50;;
17153;SDS011;8692;52.164;7.558;2023-09-19T14:56:16;5.37;;;1.43;;
17153;SDS011;8692;52.164;7.558;2023-09-19T14:58:46;3.47;;;1.40;;
17153;SDS011;8692;52.164;7.558;2023-09-19T15:01:16;3.13;;;1.60;;
17153;SDS011;8692;52.164;7.558;2023-09-19T15:03:44;6.60;;;1.73;;
17153;SDS011;8692;52.164;7.558;2023-09-19T15:06:13;5.93;;;1.43;;
17153;SDS011;8692;52.164;7.558;2023-09-19T15:08:43;4.90;;;1.53;;
17153;SDS011;8692;52.164;7.558;2023-09-19T15:11:13;6.27;;;1.40;;
17153;SDS011;8692;52.164;7.558;2023-09-19T15:13:44;5.67;;;1.50;;
17153;SDS011;8692;52.164;7.558;2023-09-19T15:16:13;8.93;;;1.57;;
17153;SDS011;8692;52.164;7.558;2023-09-19T15:18:43;2.97;;;1.23;;
17153;SDS011;8692;52.164;7.558;2023-09-19T15:21:14;6.53;;;1.73;;
17153;SDS011;8692;52.164;7.558;2023-09-19T15:23:42;7.00;;;1.57;;
17153;SDS011;8692;52.164;7.558;2023-09-19T15:26:12;3.03;;;1.00;;
17153;SDS011;8692;52.164;7.558;2023-09-19T15:28:43;4.37;;;1.27;;
17153;SDS011;8692;52.164;7.558;2023-09-19T15:31:12;6.20;;;1.40;;
17153;SDS011;8692;52.164;7.558;2023-09-19T15:33:40;2.33;;;1.17;;
17153;SDS011;8692;52.164;7.558;2023-09-19T15:36:10;3.53;;;1.17;;
17153;SDS011;8692;52.164;7.558;2023-09-19T15:38:58;4.50;;;1.20;;
17153;SDS011;8692;52.164;7.558;2023-09-19T15:41:28;3.83;;;1.13;;
17153;SDS011;8692;52.164;7.558;2023-09-19T15:43:58;5.07;;;1.10;;